Terminal Aerodrome Forecast
Issued by NWS Cleveland, OH

Home | Current Version | Previous Version | Text Only | Print | Product List | Glossary Off
Versions: 1 2 3 4 5 6 7 8 9 10 11 12 13 14 15 16 17 18 19 20 21

000
FTUS41 KCLE 201700
TAFERI
TAF
KERI 201736Z 2018/2118 17011KT P6SM SCT045 BKN250
     FM202100 20011KT P6SM VCSH BKN025
     FM210200 18004KT P6SM SCT015 BKN250
      TEMPO 2109/2113 6SM BR BKN015
     FM211300 22008KT P6SM VCSH SCT015 BKN025=

USA.gov is the U.S. government's official web portal to all federal, state and local government web resources and services.